createdAt,value
2022-08-14T00:00:10.669Z,41.93
2022-08-14T00:01:15.261Z,42.09
2022-08-14T00:02:27.169Z,41.88
2022-08-14T00:03:32.923Z,41.94
2022-08-14T00:04:42.403Z,42.39
2022-08-14T00:05:47.818Z,42.04
2022-08-14T00:07:00.039Z,42.45
2022-08-14T00:08:02.755Z,42.68
2022-08-14T00:09:16.005Z,42.21
2022-08-14T00:10:52.148Z,42.57
2022-08-14T00:11:43.975Z,42.71
2022-08-14T00:12:56.423Z,42.79
2022-08-14T00:13:59.615Z,42.74
2022-08-14T00:15:09.716Z,42.58
2022-08-14T00:16:40.816Z,42.58
2022-08-14T00:17:38.104Z,42.88
2022-08-14T00:19:06.328Z,42.69
2022-08-14T00:20:12.889Z,42.86
2022-08-14T00:21:17.050Z,42.82
2022-08-14T00:22:44.702Z,43.27
2022-08-14T00:23:43.044Z,43.21
2022-08-14T00:24:44.868Z,43.45
2022-08-14T00:25:59.233Z,43.06
2022-08-14T00:27:09.532Z,42.87
2022-08-14T00:28:15.471Z,43.62
2022-08-14T00:29:21.337Z,43.24
2022-08-14T00:30:28.592Z,43.63
2022-08-14T00:31:35.274Z,43.19
2022-08-14T00:32:52.079Z,43.32
2022-08-14T00:33:58.776Z,43.97
2022-08-14T00:35:03.314Z,43.28
2022-08-14T00:36:35.938Z,43.96
2022-08-14T00:37:28.392Z,43.54
2022-08-14T00:38:32.004Z,44.13
2022-08-14T00:39:36.616Z,43.59
2022-08-14T00:40:39.387Z,43.84
2022-08-14T00:41:48.189Z,43.89
2022-08-14T00:42:54.971Z,43.68
2022-08-14T00:43:58.342Z,44.14
2022-08-14T00:45:00.901Z,44.28
2022-08-14T00:46:07.995Z,44.33
2022-08-14T00:47:11.171Z,44.62
2022-08-14T00:48:13.355Z,44.65
2022-08-14T00:49:38.057Z,44.32
2022-08-14T00:50:44.804Z,44.98
2022-08-14T00:51:47.678Z,44.50
2022-08-14T00:52:52.257Z,44.58
2022-08-14T00:53:54.961Z,45.21
2022-08-14T00:54:57.968Z,44.69
2022-08-14T00:56:01.336Z,44.60
2022-08-14T00:57:08.897Z,45.10
2022-08-14T00:58:33.052Z,44.94
2022-08-14T00:59:36.531Z,45.47
2022-08-14T01:00:47.315Z,45.38
2022-08-14T01:01:59.984Z,45.12
2022-08-14T01:03:02.008Z,45.29
2022-08-14T01:04:05.678Z,45.22
2022-08-14T01:05:08.000Z,45.59
2022-08-14T01:06:15.286Z,45.58
2022-08-14T01:07:21.035Z,45.76
2022-08-14T01:08:57.733Z,45.46
2022-08-14T01:09:50.681Z,45.69
2022-08-14T01:10:54.281Z,45.85
2022-08-14T01:12:03.563Z,45.24
2022-08-14T01:13:05.830Z,45.75
2022-08-14T01:14:25.404Z,45.68
2022-08-14T01:15:48.405Z,45.72
2022-08-14T01:16:55.649Z,45.65
2022-08-14T01:18:17.545Z,46.28
2022-08-14T01:19:36.776Z,45.64
2022-08-14T01:20:57.136Z,46.02
2022-08-14T01:22:01.150Z,46.30
2022-08-14T01:23:03.744Z,46.42
2022-08-14T01:24:09.855Z,46.05
2022-08-14T01:25:12.631Z,46.40
2022-08-14T01:26:34.433Z,46.21
2022-08-14T01:27:56.869Z,46.35
2022-08-14T01:29:00.246Z,46.66
2022-08-14T01:30:04.692Z,46.96
2022-08-14T01:31:12.193Z,46.81
2022-08-14T01:32:15.590Z,46.64
2022-08-14T01:33:17.513Z,46.79
2022-08-14T01:35:17.242Z,47.06
2022-08-14T01:36:03.700Z,46.95
2022-08-14T01:37:10.860Z,47.48
2022-08-14T01:38:14.974Z,47.68
2022-08-14T01:39:20.413Z,47.26
2022-08-14T01:40:25.357Z,47.71
2022-08-14T01:41:30.086Z,47.67
2022-08-14T01:42:36.191Z,47.80
2022-08-14T01:43:56.233Z,48.30
2022-08-14T01:44:59.910Z,48.15
2022-08-14T01:46:06.761Z,48.06
2022-08-14T01:47:21.427Z,48.20
2022-08-14T01:48:24.284Z,48.66
2022-08-14T01:49:35.480Z,48.21
2022-08-14T01:50:38.300Z,48.54
2022-08-14T01:51:44.486Z,48.68
2022-08-14T01:52:59.144Z,48.70
2022-08-14T01:54:06.378Z,48.97
2022-08-14T01:55:09.297Z,49.29
2022-08-14T01:56:18.704Z,49.52
2022-08-14T01:57:20.472Z,49.24
2022-08-14T01:58:28.935Z,48.98
2022-08-14T01:59:38.060Z,48.97
2022-08-14T02:00:41.146Z,49.70
2022-08-14T02:01:51.374Z,49.38
2022-08-14T02:03:01.674Z,49.73
2022-08-14T02:04:04.792Z,49.46
2022-08-14T02:05:35.702Z,49.88
2022-08-14T02:06:40.519Z,49.98
2022-08-14T02:07:55.658Z,49.78
2022-08-14T02:09:19.393Z,50.23
2022-08-14T02:10:26.075Z,50.14
2022-08-14T02:11:29.786Z,50.12
2022-08-14T02:12:32.054Z,50.50
2022-08-14T02:13:35.548Z,50.51
2022-08-14T02:14:40.243Z,50.62
2022-08-14T02:16:01.865Z,50.16
2022-08-14T02:17:24.484Z,50.26
2022-08-14T02:18:27.803Z,50.44
2022-08-14T02:19:35.593Z,50.58
2022-08-14T02:20:37.284Z,50.86
2022-08-14T02:21:43.764Z,50.37
2022-08-14T02:22:52.006Z,51.17
2022-08-14T02:23:57.433Z,50.72
2022-08-14T02:25:00.511Z,50.77
2022-08-14T02:26:24.796Z,50.92
2022-08-14T02:28:25.514Z,50.99
2022-08-14T02:28:58.028Z,51.32
2022-08-14T02:30:02.833Z,51.20
2022-08-14T02:31:08.850Z,51.05
2022-08-14T02:32:19.999Z,51.03
2022-08-14T02:33:33.551Z,51.06
2022-08-14T02:34:38.390Z,50.95
2022-08-14T02:35:43.344Z,51.10
2022-08-14T02:37:04.138Z,51.53
2022-08-14T02:38:11.825Z,51.58
2022-08-14T02:39:30.424Z,51.60
2022-08-14T02:40:34.453Z,51.38
2022-08-14T02:41:44.662Z,51.35
2022-08-14T02:42:55.243Z,51.89
2022-08-14T02:44:00.807Z,51.93
2022-08-14T02:45:03.596Z,51.74
2022-08-14T02:46:10.256Z,51.95
2022-08-14T02:47:14.804Z,51.79
2022-08-14T02:49:03.950Z,52.12
2022-08-14T02:49:45.507Z,51.96
2022-08-14T02:50:51.391Z,52.45
2022-08-14T02:51:57.439Z,52.52
2022-08-14T02:53:03.249Z,52.05
2022-08-14T02:54:08.321Z,52.59
2022-08-14T02:55:10.001Z,52.26
2022-08-14T02:56:30.224Z,52.64
2022-08-14T02:57:39.958Z,52.16
2022-08-14T02:58:46.723Z,52.70
2022-08-14T02:59:50.636Z,52.28
2022-08-14T03:00:54.421Z,52.41
2022-08-14T03:01:59.848Z,52.81
2022-08-14T03:03:07.942Z,52.66
2022-08-14T03:04:11.288Z,52.74
2022-08-14T03:05:15.203Z,53.17
2022-08-14T03:06:20.650Z,52.53
2022-08-14T03:07:37.910Z,52.96
2022-08-14T03:08:45.980Z,52.95
2022-08-14T03:10:27.887Z,53.07
2022-08-14T03:11:12.718Z,53.45
2022-08-14T03:12:26.958Z,53.12
2022-08-14T03:13:35.651Z,53.34
2022-08-14T03:14:38.702Z,53.50
2022-08-14T03:15:43.183Z,53.56
2022-08-14T03:16:49.259Z,53.16
2022-08-14T03:17:56.881Z,53.14
2022-08-14T03:19:01.135Z,53.27
2022-08-14T03:20:04.582Z,53.74
2022-08-14T03:21:08.546Z,53.59
2022-08-14T03:22:17.614Z,53.88
2022-08-14T03:23:20.839Z,53.77
2022-08-14T03:24:23.796Z,53.89
2022-08-14T03:25:26.593Z,53.64
2022-08-14T03:26:30.803Z,53.78
2022-08-14T03:27:35.377Z,53.58
2022-08-14T03:28:52.750Z,53.74
2022-08-14T03:29:54.972Z,53.74
2022-08-14T03:30:59.703Z,54.22
2022-08-14T03:32:01.721Z,54.24
2022-08-14T03:33:07.980Z,53.80
2022-08-14T03:34:10.311Z,54.30
2022-08-14T03:35:30.876Z,53.84
2022-08-14T03:37:39.445Z,54.15
2022-08-14T03:39:12.651Z,54.49
2022-08-14T03:39:35.408Z,54.01
2022-08-14T03:40:38.306Z,54.15
2022-08-14T03:41:41.204Z,54.59
2022-08-14T03:42:45.444Z,54.73
2022-08-14T03:43:57.441Z,54.33
2022-08-14T03:45:26.102Z,54.50
2022-08-14T03:46:39.229Z,54.67
2022-08-14T03:47:58.387Z,54.39
2022-08-14T03:49:02.775Z,54.73
2022-08-14T03:50:05.421Z,54.65
2022-08-14T03:51:13.101Z,54.85
2022-08-14T03:52:18.194Z,55.09
2022-08-14T03:53:43.952Z,55.06
2022-08-14T03:54:46.610Z,54.67
2022-08-14T03:55:59.009Z,55.16
2022-08-14T03:57:03.317Z,54.93
2022-08-14T03:58:07.925Z,55.25
2022-08-14T03:59:17.811Z,55.27
2022-08-14T04:00:43.618Z,55.54
2022-08-14T04:01:53.933Z,55.00
2022-08-14T04:03:06.534Z,55.30
2022-08-14T04:04:09.037Z,55.36
2022-08-14T04:05:13.113Z,55.60
2022-08-14T04:06:21.150Z,55.52
2022-08-14T04:07:25.033Z,55.55
2022-08-14T04:08:30.678Z,55.59
2022-08-14T04:09:34.021Z,55.96
2022-08-14T04:10:36.346Z,55.60
2022-08-14T04:11:39.284Z,55.82
2022-08-14T04:12:42.627Z,55.31
2022-08-14T04:13:55.985Z,55.84
2022-08-14T04:14:58.332Z,55.82
2022-08-14T04:16:06.695Z,55.73
2022-08-14T04:17:11.715Z,55.89
2022-08-14T04:18:15.452Z,55.63
2022-08-14T04:19:23.723Z,56.06
2022-08-14T04:20:25.951Z,56.08
2022-08-14T04:21:30.746Z,55.99
2022-08-14T04:22:33.131Z,56.02
2022-08-14T04:23:35.830Z,56.19
2022-08-14T04:24:39.340Z,56.13
2022-08-14T04:25:42.039Z,56.02
2022-08-14T04:26:44.477Z,56.28
2022-08-14T04:28:01.764Z,56.15
2022-08-14T04:29:14.804Z,56.44
2022-08-14T04:30:32.528Z,56.27
2022-08-14T04:32:58.863Z,56.29
2022-08-14T04:33:04.737Z,56.01
2022-08-14T04:34:20.986Z,56.34
2022-08-14T04:35:37.446Z,56.63
2022-08-14T04:37:10.781Z,56.36
2022-08-14T04:38:39.680Z,56.35
2022-08-14T04:40:05.345Z,56.17
2022-08-14T04:41:30.182Z,56.27
2022-08-14T04:42:51.507Z,56.50
2022-08-14T04:43:54.619Z,56.62
2022-08-14T04:45:00.492Z,56.33
2022-08-14T04:46:03.994Z,56.51
2022-08-14T04:47:30.762Z,56.33
2022-08-14T04:48:43.299Z,56.72
2022-08-14T04:49:57.050Z,56.38
2022-08-14T04:51:00.818Z,56.59
2022-08-14T04:52:04.042Z,56.26
2022-08-14T04:53:23.329Z,56.38
2022-08-14T04:54:29.369Z,56.69
2022-08-14T04:55:31.089Z,56.84
2022-08-14T04:56:34.591Z,56.56
2022-08-14T04:57:38.514Z,56.74
2022-08-14T04:58:42.953Z,56.68
2022-08-14T04:59:46.878Z,56.83
2022-08-14T05:00:52.352Z,56.59
2022-08-14T05:01:57.097Z,56.63
2022-08-14T05:03:03.067Z,56.46
2022-08-14T05:04:16.100Z,56.73
2022-08-14T05:05:20.767Z,56.35
2022-08-14T05:06:37.360Z,56.50
2022-08-14T05:07:53.851Z,56.52
2022-08-14T05:09:00.285Z,56.55
2022-08-14T05:10:12.764Z,56.44
2022-08-14T05:11:19.158Z,56.68
2022-08-14T05:13:13.607Z,56.35
2022-08-14T05:14:16.256Z,56.21
2022-08-14T05:15:10.281Z,55.95
2022-08-14T05:16:13.222Z,56.48
2022-08-14T05:17:17.417Z,56.34
2022-08-14T05:18:37.140Z,56.25
2022-08-14T05:21:04.380Z,56.33
2022-08-14T05:21:57.350Z,56.49
2022-08-14T05:22:30.339Z,56.27
2022-08-14T05:23:34.722Z,55.90
2022-08-14T05:24:40.567Z,56.12
2022-08-14T05:25:43.131Z,56.34
2022-08-14T05:26:46.741Z,56.55
2022-08-14T05:27:49.106Z,56.11
2022-08-14T05:28:51.685Z,56.11
2022-08-14T05:29:55.538Z,56.09
2022-08-14T05:31:02.777Z,56.19
2022-08-14T05:32:07.401Z,55.89
2022-08-14T05:33:10.184Z,56.55
2022-08-14T05:34:11.826Z,56.26
2022-08-14T05:35:14.415Z,55.95
2022-08-14T05:36:17.291Z,55.98
2022-08-14T05:37:18.958Z,55.86
2022-08-14T05:38:30.708Z,55.94
2022-08-14T05:39:33.541Z,56.29
2022-08-14T05:40:36.690Z,56.10
2022-08-14T05:41:53.035Z,56.38
2022-08-14T05:42:56.747Z,55.79
2022-08-14T05:43:59.831Z,55.94
2022-08-14T05:45:05.525Z,56.12
2022-08-14T05:46:18.305Z,56.05
2022-08-14T05:47:21.369Z,55.43
2022-08-14T05:48:33.506Z,55.87
2022-08-14T05:49:36.729Z,55.18
2022-08-14T05:50:40.308Z,55.08
2022-08-14T05:51:46.730Z,55.05
2022-08-14T05:52:50.339Z,54.38
2022-08-14T05:54:01.622Z,54.33
2022-08-14T05:55:14.979Z,54.47
2022-08-14T05:56:19.396Z,54.46
2022-08-14T05:57:21.122Z,53.39
2022-08-14T05:58:33.821Z,53.40
2022-08-14T05:59:43.676Z,53.89
2022-08-14T06:00:46.299Z,53.26
2022-08-14T06:01:50.573Z,53.37
2022-08-14T06:02:56.110Z,52.69
2022-08-14T06:04:00.058Z,53.21
2022-08-14T06:05:03.049Z,52.45
2022-08-14T06:06:05.808Z,52.92
2022-08-14T06:07:07.384Z,52.57
2022-08-14T06:08:31.186Z,52.18
2022-08-14T06:09:40.649Z,52.14
2022-08-14T06:10:46.189Z,52.19
2022-08-14T06:11:49.784Z,52.14
2022-08-14T06:12:56.028Z,51.83
2022-08-14T06:13:59.957Z,52.17
2022-08-14T06:15:02.159Z,52.06
2022-08-14T06:16:11.330Z,51.91
2022-08-14T06:17:25.699Z,51.56
2022-08-14T06:18:32.197Z,51.70
2022-08-14T06:19:34.039Z,51.59
2022-08-14T06:20:36.766Z,51.17
2022-08-14T06:21:41.688Z,50.87
2022-08-14T06:22:47.112Z,51.00
2022-08-14T06:23:51.791Z,51.32
2022-08-14T06:24:54.366Z,50.55
2022-08-14T06:25:56.439Z,50.72
2022-08-14T06:27:04.325Z,50.83
2022-08-14T06:28:28.157Z,50.47
2022-08-14T06:29:32.092Z,50.20
2022-08-14T06:30:46.052Z,50.90
2022-08-14T06:31:54.826Z,50.16
2022-08-14T06:33:06.643Z,50.57
2022-08-14T06:35:09.582Z,50.07
2022-08-14T06:35:35.621Z,50.48
2022-08-14T06:36:39.450Z,50.25
2022-08-14T06:37:43.627Z,49.86
2022-08-14T06:38:45.851Z,49.82
2022-08-14T06:39:52.911Z,49.89
2022-08-14T06:40:55.613Z,49.99
2022-08-14T06:42:00.030Z,49.47
2022-08-14T06:43:04.621Z,49.40
2022-08-14T06:44:09.706Z,49.64
2022-08-14T06:45:13.133Z,49.17
2022-08-14T06:46:23.258Z,49.29
2022-08-14T06:47:36.287Z,48.99
2022-08-14T06:48:38.978Z,49.37
2022-08-14T06:49:55.960Z,48.98
2022-08-14T06:51:00.708Z,49.14
2022-08-14T06:52:02.478Z,48.98
2022-08-14T06:53:07.236Z,48.92
2022-08-14T06:54:09.246Z,48.74
2022-08-14T06:55:13.864Z,48.49
2022-08-14T06:56:15.486Z,48.49
2022-08-14T06:57:18.192Z,48.85
2022-08-14T06:58:28.323Z,48.53
2022-08-14T06:59:33.825Z,49.01
2022-08-14T07:00:35.476Z,48.89
2022-08-14T07:01:56.570Z,48.57
2022-08-14T07:03:17.248Z,49.07
2022-08-14T07:04:37.577Z,48.95
2022-08-14T07:05:55.936Z,49.43
2022-08-14T07:07:00.222Z,49.39
2022-08-14T07:08:03.601Z,49.09
2022-08-14T07:09:05.544Z,49.66
2022-08-14T07:10:16.785Z,49.12
2022-08-14T07:11:20.040Z,49.68
2022-08-14T07:12:55.175Z,49.72
2022-08-14T07:13:44.628Z,49.51
2022-08-14T07:14:50.419Z,49.63
2022-08-14T07:15:55.173Z,49.82
2022-08-14T07:16:57.463Z,49.63
2022-08-14T07:18:00.661Z,49.77
2022-08-14T07:19:02.258Z,49.29
2022-08-14T07:20:05.807Z,50.04
2022-08-14T07:21:11.353Z,49.93
2022-08-14T07:22:17.390Z,49.99
2022-08-14T07:23:25.694Z,49.99
2022-08-14T07:24:31.388Z,49.60
2022-08-14T07:25:34.971Z,49.38
2022-08-14T07:26:40.170Z,50.08
2022-08-14T07:27:44.517Z,49.79
2022-08-14T07:28:47.411Z,50.01
2022-08-14T07:29:49.645Z,49.61
2022-08-14T07:30:57.557Z,49.61
2022-08-14T07:32:07.203Z,49.93
2022-08-14T07:33:14.059Z,49.33
2022-08-14T07:34:36.103Z,49.54
2022-08-14T07:35:57.910Z,49.98
2022-08-14T07:37:02.994Z,49.35
2022-08-14T07:38:05.182Z,49.64
2022-08-14T07:39:12.198Z,49.38
2022-08-14T07:40:15.086Z,49.55
2022-08-14T07:41:33.507Z,49.33
2022-08-14T07:42:36.048Z,49.95
2022-08-14T07:43:39.431Z,49.99
2022-08-14T07:44:46.579Z,49.75
2022-08-14T07:45:53.889Z,49.90
2022-08-14T07:46:55.938Z,49.21
2022-08-14T07:47:58.694Z,49.44
2022-08-14T07:49:00.850Z,49.34
2022-08-14T07:50:09.033Z,49.01
2022-08-14T07:51:11.494Z,49.71
2022-08-14T07:52:22.196Z,49.12
2022-08-14T07:53:36.519Z,49.57
2022-08-14T07:54:41.308Z,49.00
2022-08-14T07:55:46.398Z,49.72
2022-08-14T07:57:11.764Z,48.99
2022-08-14T07:58:34.022Z,49.26
2022-08-14T07:59:41.958Z,49.46
2022-08-14T08:00:46.592Z,48.90
2022-08-14T08:01:53.587Z,49.33
2022-08-14T08:03:00.676Z,49.30
2022-08-14T08:04:04.073Z,48.91
2022-08-14T08:05:21.466Z,49.07
2022-08-14T08:06:23.483Z,49.04
2022-08-14T08:07:31.327Z,48.94
2022-08-14T08:08:33.119Z,49.21
2022-08-14T08:09:37.991Z,49.26
2022-08-14T08:11:02.148Z,49.11
2022-08-14T08:12:14.110Z,48.73
2022-08-14T08:13:22.333Z,49.18
2022-08-14T08:14:26.888Z,48.47
2022-08-14T08:15:33.645Z,48.88
2022-08-14T08:16:36.569Z,48.49
2022-08-14T08:17:53.196Z,48.67
2022-08-14T08:19:01.745Z,48.56
2022-08-14T08:20:11.657Z,48.93
2022-08-14T08:21:14.554Z,48.44
2022-08-14T08:22:21.153Z,48.81
2022-08-14T08:23:30.994Z,48.52
2022-08-14T08:24:42.024Z,48.42
2022-08-14T08:25:46.120Z,48.66
2022-08-14T08:26:51.307Z,48.11
2022-08-14T08:28:03.512Z,48.57
2022-08-14T08:29:10.468Z,48.69
2022-08-14T08:30:14.698Z,48.52
2022-08-14T08:31:17.315Z,48.35
2022-08-14T08:32:20.407Z,48.22
2022-08-14T08:33:37.211Z,48.34
2022-08-14T08:34:45.223Z,48.37
2022-08-14T08:35:50.381Z,48.17
2022-08-14T08:36:52.735Z,48.27
2022-08-14T08:38:01.433Z,48.27
2022-08-14T08:39:15.128Z,48.26
2022-08-14T08:40:24.869Z,48.08
2022-08-14T08:41:41.437Z,48.13
2022-08-14T08:42:45.127Z,47.94
2022-08-14T08:43:48.126Z,47.87
2022-08-14T08:44:55.285Z,48.40
2022-08-14T08:46:00.274Z,47.85
2022-08-14T08:47:06.133Z,47.82
2022-08-14T08:48:20.784Z,47.77
2022-08-14T08:49:43.308Z,48.00
2022-08-14T08:50:57.258Z,47.87
2022-08-14T08:52:04.152Z,47.96
2022-08-14T08:53:09.361Z,47.79
2022-08-14T08:54:19.907Z,47.90
2022-08-14T08:55:28.334Z,47.66
2022-08-14T08:56:39.553Z,47.45
2022-08-14T08:57:42.956Z,47.39
2022-08-14T08:58:45.561Z,47.41
2022-08-14T08:59:49.121Z,47.46
2022-08-14T09:01:00.021Z,47.38
2022-08-14T09:02:05.322Z,47.44
2022-08-14T09:03:10.133Z,47.10
2022-08-14T09:04:14.931Z,46.89
2022-08-14T09:05:20.255Z,47.21
2022-08-14T09:07:00.915Z,46.96
2022-08-14T09:07:47.347Z,46.74
2022-08-14T09:08:51.775Z,46.83
2022-08-14T09:09:59.810Z,46.56
2022-08-14T09:11:19.035Z,46.35
2022-08-14T09:12:22.739Z,46.33
2022-08-14T09:13:26.995Z,46.05
2022-08-14T09:14:34.952Z,45.84
2022-08-14T09:15:42.927Z,45.58
2022-08-14T09:16:48.236Z,45.77
2022-08-14T09:17:54.626Z,45.52
2022-08-14T09:18:56.811Z,45.63
2022-08-14T09:20:01.951Z,45.17
2022-08-14T09:21:07.059Z,45.14
2022-08-14T09:22:34.788Z,45.04
2022-08-14T09:23:35.085Z,45.03
2022-08-14T09:24:58.289Z,45.17
2022-08-14T09:26:05.111Z,44.86
2022-08-14T09:27:23.400Z,44.68
2022-08-14T09:28:26.135Z,44.72
2022-08-14T09:29:28.867Z,44.55
2022-08-14T09:30:37.684Z,44.58
2022-08-14T09:31:53.472Z,44.47
2022-08-14T09:33:10.953Z,44.35
2022-08-14T09:34:28.056Z,44.44
2022-08-14T09:35:36.329Z,45.05
2022-08-14T09:36:49.992Z,44.41
2022-08-14T09:38:00.347Z,44.83
2022-08-14T09:39:23.249Z,44.29
2022-08-14T09:40:39.858Z,44.29
2022-08-14T09:42:20.943Z,44.23
2022-08-14T09:43:30.515Z,44.03
2022-08-14T09:44:45.721Z,43.91
2022-08-14T09:45:52.797Z,43.61
2022-08-14T09:46:56.116Z,42.67
2022-08-14T09:48:00.734Z,42.52
2022-08-14T09:49:05.768Z,41.88
2022-08-14T09:50:17.154Z,41.49
2022-08-14T09:51:25.379Z,40.99
2022-08-14T09:52:34.184Z,40.80
2022-08-14T09:54:18.850Z,40.40
2022-08-14T09:55:19.485Z,40.27
2022-08-14T09:56:30.878Z,40.19
2022-08-14T09:57:33.423Z,40.22
2022-08-14T09:58:39.369Z,40.29
2022-08-14T09:59:46.005Z,40.75
2022-08-14T10:00:50.814Z,40.68
2022-08-14T10:01:57.017Z,40.98
2022-08-14T10:03:05.051Z,40.81
2022-08-14T10:04:35.055Z,41.04
2022-08-14T10:05:40.623Z,40.92
2022-08-14T10:06:45.022Z,40.98
2022-08-14T10:07:53.869Z,40.86
2022-08-14T10:09:06.514Z,40.84
2022-08-14T10:10:28.760Z,41.08
2022-08-14T10:11:43.289Z,40.96
2022-08-14T10:12:48.536Z,40.88
2022-08-14T10:13:58.998Z,40.91
2022-08-14T10:15:00.794Z,40.88
2022-08-14T10:16:05.776Z,40.95
2022-08-14T10:17:33.086Z,40.57
2022-08-14T10:18:41.829Z,40.44
2022-08-14T10:19:49.355Z,40.47
2022-08-14T10:20:57.698Z,40.17
2022-08-14T10:23:14.317Z,40.16
2022-08-14T10:23:27.051Z,40.13
2022-08-14T10:24:36.385Z,40.10
2022-08-14T10:25:41.076Z,39.97
2022-08-14T10:26:58.750Z,39.82
2022-08-14T10:28:03.829Z,40.13
2022-08-14T10:29:19.954Z,40.08
2022-08-14T10:30:35.087Z,40.11
2022-08-14T10:31:43.154Z,40.23
2022-08-14T10:32:51.657Z,39.61
2022-08-14T10:34:03.954Z,39.36
2022-08-14T10:35:17.277Z,39.44
2022-08-14T10:36:34.509Z,39.28
2022-08-14T10:37:41.413Z,39.36
2022-08-14T10:38:58.265Z,39.18
2022-08-14T10:40:10.447Z,39.24
2022-08-14T10:41:15.640Z,39.23
2022-08-14T10:42:21.197Z,38.99
2022-08-14T10:43:26.527Z,38.70
2022-08-14T10:44:33.817Z,38.64
2022-08-14T10:45:42.043Z,38.67
2022-08-14T10:47:39.553Z,38.72
2022-08-14T10:48:23.616Z,38.71
2022-08-14T10:49:28.049Z,38.82
2022-08-14T10:50:31.501Z,38.78
2022-08-14T10:51:36.090Z,38.30
2022-08-14T10:52:42.304Z,38.48
2022-08-14T10:53:56.787Z,38.58
2022-08-14T10:55:08.564Z,38.75
2022-08-14T10:56:21.609Z,38.42
2022-08-14T10:57:48.797Z,38.00
2022-08-14T10:59:02.329Z,37.85
2022-08-14T11:00:13.966Z,37.37
2022-08-14T11:01:32.552Z,37.27
2022-08-14T11:02:53.925Z,37.03
2022-08-14T11:03:57.311Z,36.67
2022-08-14T11:05:07.468Z,36.37
2022-08-14T11:06:19.706Z,36.31
2022-08-14T11:07:22.000Z,36.47
2022-08-14T11:08:32.637Z,36.16
2022-08-14T11:09:34.345Z,36.20
2022-08-14T11:10:44.841Z,36.45
2022-08-14T11:11:47.622Z,36.59
2022-08-14T11:12:59.303Z,36.44
2022-08-14T11:14:01.029Z,36.91
2022-08-14T11:15:07.518Z,36.34
2022-08-14T11:16:16.082Z,36.78
2022-08-14T11:17:18.372Z,36.78
2022-08-14T11:18:32.144Z,36.22
2022-08-14T11:19:39.038Z,36.47
2022-08-14T11:20:54.110Z,36.56
2022-08-14T11:22:00.892Z,36.59
2022-08-14T11:23:04.482Z,37.05
2022-08-14T11:24:50.921Z,36.50
2022-08-14T11:25:44.340Z,37.09
2022-08-14T11:26:55.044Z,36.74
2022-08-14T11:28:00.948Z,36.58
2022-08-14T11:29:05.702Z,36.57
2022-08-14T11:30:51.588Z,36.40
2022-08-14T11:31:38.582Z,36.21
2022-08-14T11:32:42.661Z,36.03
2022-08-14T11:33:50.123Z,36.56
2022-08-14T11:34:53.366Z,36.31
2022-08-14T11:35:59.595Z,36.44
2022-08-14T11:37:21.969Z,35.82
2022-08-14T11:38:37.836Z,36.21
2022-08-14T11:39:40.682Z,36.54
2022-08-14T11:40:43.668Z,35.98
2022-08-14T11:41:55.956Z,36.23
2022-08-14T11:43:01.214Z,35.79
2022-08-14T11:44:17.665Z,35.57
2022-08-14T11:45:23.123Z,35.57
2022-08-14T11:46:30.217Z,35.19
2022-08-14T11:47:44.015Z,35.08
2022-08-14T11:49:05.832Z,35.63
2022-08-14T11:50:24.926Z,35.20
2022-08-14T11:51:53.438Z,35.23
2022-08-14T11:53:02.316Z,35.80
2022-08-14T11:54:08.195Z,35.24
2022-08-14T11:55:13.469Z,35.25
2022-08-14T11:56:15.489Z,35.41
2022-08-14T11:57:22.739Z,35.28
2022-08-14T11:58:30.841Z,35.12
2022-08-14T11:59:33.485Z,34.70
2022-08-14T12:00:47.286Z,34.73
2022-08-14T12:01:49.370Z,34.84
2022-08-14T12:03:03.195Z,34.41
2022-08-14T12:04:21.817Z,34.37
2022-08-14T12:05:38.819Z,34.31
2022-08-14T12:06:49.178Z,34.45
2022-08-14T12:07:55.136Z,34.62
2022-08-14T12:08:56.876Z,34.45
2022-08-14T12:10:25.470Z,34.56
2022-08-14T12:11:25.382Z,34.60
2022-08-14T12:12:36.005Z,34.63
2022-08-14T12:13:44.366Z,34.25
2022-08-14T12:15:00.088Z,33.96
2022-08-14T12:16:06.544Z,33.64
2022-08-14T12:17:14.911Z,34.27
2022-08-14T12:18:32.317Z,34.02
2022-08-14T12:19:45.447Z,33.40
2022-08-14T12:20:52.695Z,33.89
2022-08-14T12:21:55.544Z,33.47
2022-08-14T12:22:58.818Z,32.98
2022-08-14T12:24:05.555Z,32.79
2022-08-14T12:25:13.755Z,33.00
2022-08-14T12:26:39.063Z,32.79
2022-08-14T12:27:51.755Z,32.99
2022-08-14T12:29:08.569Z,32.96
2022-08-14T12:30:14.199Z,33.71
2022-08-14T12:31:23.585Z,33.06
2022-08-14T12:32:38.826Z,33.26
2022-08-14T12:33:46.952Z,33.77
2022-08-14T12:34:55.114Z,33.79
2022-08-14T12:35:58.680Z,33.69
2022-08-14T12:37:06.036Z,33.42
2022-08-14T12:38:10.429Z,33.28
2022-08-14T12:39:23.879Z,33.39
2022-08-14T12:40:28.713Z,33.52
2022-08-14T12:41:37.218Z,32.76
2022-08-14T12:42:47.527Z,33.19
2022-08-14T12:43:59.692Z,32.88
2022-08-14T12:45:04.364Z,33.09
2022-08-14T12:46:08.086Z,32.58
2022-08-14T12:47:31.151Z,33.37
2022-08-14T12:48:34.328Z,33.48
2022-08-14T12:49:37.728Z,33.16
2022-08-14T12:50:42.831Z,32.63
2022-08-14T12:51:57.047Z,32.79
2022-08-14T12:53:13.919Z,32.34
2022-08-14T12:54:27.312Z,32.46
2022-08-14T12:56:17.838Z,32.73
2022-08-14T12:57:05.409Z,32.59
2022-08-14T12:58:28.736Z,31.96
2022-08-14T12:59:37.191Z,32.53
2022-08-14T13:01:16.275Z,31.72
2022-08-14T13:02:26.009Z,31.82
2022-08-14T13:03:30.169Z,31.96
2022-08-14T13:04:35.443Z,32.55
2022-08-14T13:05:37.670Z,32.21
2022-08-14T13:06:44.617Z,32.53
2022-08-14T13:07:46.255Z,32.58
2022-08-14T13:08:53.017Z,32.43
2022-08-14T13:09:55.544Z,31.93
2022-08-14T13:10:59.514Z,32.52
2022-08-14T13:12:34.932Z,32.36
2022-08-14T13:13:34.296Z,33.21
2022-08-14T13:14:40.904Z,33.25
2022-08-14T13:15:46.183Z,33.62
2022-08-14T13:16:53.062Z,33.70
2022-08-14T13:18:04.663Z,33.90
2022-08-14T13:19:11.246Z,34.33
2022-08-14T13:20:23.528Z,34.28
2022-08-14T13:21:27.300Z,34.56
2022-08-14T13:22:33.566Z,33.93
2022-08-14T13:23:43.755Z,34.86
2022-08-14T13:24:49.276Z,34.73
2022-08-14T13:25:55.947Z,35.04
2022-08-14T13:27:00.318Z,35.11
2022-08-14T13:28:04.177Z,34.59
2022-08-14T13:29:16.095Z,34.64
2022-08-14T13:30:23.896Z,34.76
2022-08-14T13:31:30.480Z,34.77
2022-08-14T13:32:39.191Z,34.01
2022-08-14T13:33:42.007Z,34.61
2022-08-14T13:34:48.147Z,34.12
2022-08-14T13:35:49.851Z,34.81
2022-08-14T13:36:58.889Z,34.75
2022-08-14T13:38:05.696Z,34.47
2022-08-14T13:39:09.716Z,34.43
2022-08-14T13:40:14.560Z,34.44
2022-08-14T13:41:23.851Z,34.45
2022-08-14T13:42:30.542Z,34.22
2022-08-14T13:43:36.863Z,34.25
2022-08-14T13:44:53.478Z,34.37
2022-08-14T13:46:00.925Z,34.92
2022-08-14T13:47:06.480Z,34.93
2022-08-14T13:48:27.701Z,34.67
2022-08-14T13:49:37.378Z,34.72
2022-08-14T13:50:41.270Z,34.97
2022-08-14T13:51:49.295Z,34.19
2022-08-14T13:53:01.325Z,34.12
2022-08-14T13:54:10.736Z,34.68
2022-08-14T13:55:19.011Z,34.09
2022-08-14T13:56:36.574Z,33.73
2022-08-14T13:57:49.732Z,33.61
2022-08-14T13:59:04.963Z,34.25
2022-08-14T14:00:12.830Z,34.01
2022-08-14T14:01:19.078Z,34.20
2022-08-14T14:02:33.750Z,33.47
2022-08-14T14:03:40.316Z,34.14
2022-08-14T14:04:46.363Z,33.61
2022-08-14T14:05:54.871Z,33.52
2022-08-14T14:07:00.517Z,34.16
2022-08-14T14:08:18.526Z,33.75
2022-08-14T14:09:37.678Z,33.34
2022-08-14T14:10:56.860Z,33.67
2022-08-14T14:11:59.504Z,34.04
2022-08-14T14:13:04.326Z,33.95
2022-08-14T14:14:09.979Z,33.17
2022-08-14T14:15:48.682Z,33.04
2022-08-14T14:16:55.200Z,33.49
2022-08-14T14:17:59.515Z,33.01
2022-08-14T14:19:08.932Z,32.73
2022-08-14T14:20:34.546Z,33.03
2022-08-14T14:21:37.223Z,32.71
2022-08-14T14:23:02.615Z,32.26
2022-08-14T14:24:04.710Z,32.14
2022-08-14T14:25:06.988Z,32.45
2022-08-14T14:26:13.765Z,32.48
2022-08-14T14:27:39.665Z,31.80
2022-08-14T14:28:43.953Z,32.08
2022-08-14T14:29:50.669Z,32.18
2022-08-14T14:31:01.010Z,32.26
2022-08-14T14:32:04.147Z,31.54
2022-08-14T14:33:28.941Z,32.37
2022-08-14T14:34:34.311Z,31.82
2022-08-14T14:35:39.874Z,31.35
2022-08-14T14:36:45.126Z,31.24
2022-08-14T14:37:51.986Z,31.02
2022-08-14T14:38:56.381Z,31.07
2022-08-14T14:40:53.881Z,31.24
2022-08-14T14:41:23.987Z,31.78
2022-08-14T14:42:35.462Z,31.72
2022-08-14T14:43:44.820Z,31.34
2022-08-14T14:44:53.001Z,31.31
2022-08-14T14:45:59.482Z,32.08
2022-08-14T14:47:01.673Z,31.87
2022-08-14T14:48:07.934Z,31.90
2022-08-14T14:49:14.448Z,31.40